Time;durP1;ratioP1;P1;durP2;ratioP2;P2;SDS_P1;SDS_P2;PMS_P1;PMS_P2;Temp;Humidity;BMP_temperature;BMP_pressure;BME280_temperature;BME280_humidity;BME280_pressure;Samples;Min_cycle;Max_cycle;Signal;HPM_P1;HPM_P2
2022/12/19 13:57:55;;;;;;;2.23;2.13;;;;;;;2.04;70.39;96262.13;2307062;54;37350;31
2022/12/19 14:00:36;;;;;;;4.80;3.63;;;;;;;1.55;69.50;96228.28;2624075;54;20155;-84
2022/12/19 14:03:06;;;;;;;6.03;3.47;;;;;;;1.97;69.41;96268.47;2623436;47;20268;-82
2022/12/19 14:05:39;;;;;;;7.70;4.73;;;;;;;1.16;69.33;96173.78;2621989;47;20227;-86
2022/12/19 14:10:48;;;;;;;4.77;3.87;;;;;;;1.01;70.56;96139.00;2614080;54;20199;-80
2022/12/19 14:16:04;;;;;;;3.60;2.70;;;;;;;1.79;71.12;96255.63;2618507;47;20152;-78
2022/12/19 14:18:34;;;;;;;5.77;4.63;;;;;;;1.51;70.45;96261.41;2619096;47;20170;-78
2022/12/19 14:21:16;;;;;;;5.70;4.70;;;;;;;1.64;70.79;96264.06;2618211;54;20179;-79
2022/12/19 14:23:45;;;;;;;3.50;3.10;;;;;;;1.51;70.30;96262.16;2619423;54;20157;-84
2022/12/19 14:26:21;;;;;;;5.23;3.87;;;;;;;1.47;69.43;96280.63;2620949;47;20149;-86
2022/12/19 14:28:54;;;;;;;4.00;3.60;;;;;;;1.39;68.82;96252.69;2620530;47;20158;-84
2022/12/19 14:31:28;;;;;;;7.00;5.50;;;;;;;0.99;69.64;96224.56;2620763;47;20146;-83
2022/12/19 14:33:58;;;;;;;3.83;3.57;;;;;;;1.40;69.76;96268.13;2621447;31;20751;-85
2022/12/19 14:36:30;;;;;;;6.73;4.97;;;;;;;1.28;69.71;96267.75;2618782;47;20153;-83
2022/12/19 14:39:00;;;;;;;2.73;2.60;;;;;;;1.61;70.70;96256.78;2619466;54;20205;-83
2022/12/19 14:44:21;;;;;;;6.80;4.27;;;;;;;0.56;69.35;96131.34;2619254;39;20562;-83
2022/12/19 14:47:05;;;;;;;4.47;4.07;;;;;;;1.86;68.55;96254.88;2623618;47;20153;-88
2022/12/19 14:49:36;;;;;;;2.83;2.73;;;;;;;1.62;69.28;96252.69;2617645;47;20156;-83
2022/12/19 14:52:06;;;;;;;3.97;2.37;;;;;;;1.72;68.88;96248.00;2617493;54;20153;-84
2022/12/19 14:54:34;;;;;;;7.70;4.47;;;;;;;1.66;68.77;96248.19;2618310;47;20236;-86
2022/12/19 14:59:34;;;;;;;1.20;1.20;;;;;;;1.83;71.05;96242.03;2571856;31;21472;31
2022/12/19 15:02:19;;;;;;;4.20;2.75;;;;;;;1.58;70.14;96250.25;2572298;54;20559;31
2022/12/19 15:07:23;;;;;;;4.17;3.37;;;;;;;1.06;71.97;96098.28;2631499;54;20129;-85
2022/12/19 15:17:22;;;;;;;6.55;2.95;;;;;;;0.61;68.03;96141.59;2575536;54;20238;31
2022/12/19 15:22:20;;;;;;;3.73;3.33;;;;;;;1.13;65.55;96206.34;2618947;54;20216;-87
2022/12/19 15:24:49;;;;;;;3.83;2.60;;;;;;;1.20;63.86;96233.53;2628803;47;20145;-86
2022/12/19 15:27:19;;;;;;;3.23;2.93;;;;;;;1.29;64.89;96248.97;2629047;54;20145;-86
2022/12/19 15:29:47;;;;;;;5.27;3.37;;;;;;;0.70;65.68;96187.69;2628133;47;20651;-87
2022/12/19 15:32:19;;;;;;;7.83;3.37;;;;;;;0.92;67.15;96222.53;2627100;47;20184;-86
2022/12/19 15:34:48;;;;;;;3.23;2.93;;;;;;;1.03;68.20;96250.06;2627515;47;20155;-87
2022/12/19 15:37:18;;;;;;;6.70;4.93;;;;;;;0.98;67.98;96257.28;2626044;47;20179;-87
2022/12/19 15:39:47;;;;;;;2.67;2.33;;;;;;;1.15;68.08;96261.59;2623629;54;20133;-79
2022/12/19 15:42:22;;;;;;;5.33;4.57;;;;;;;1.11;68.13;96253.59;2617828;47;20203;-79
2022/12/19 15:44:55;;;;;;;4.90;4.43;;;;;;;1.08;67.73;96259.56;2617437;47;20152;-80
2022/12/19 15:47:32;;;;;;;6.40;4.07;;;;;;;1.15;66.66;96272.75;2620292;47;20172;-81
2022/12/19 15:50:04;;;;;;;3.17;2.87;;;;;;;1.17;68.46;96256.22;2620564;54;20148;-80
2022/12/19 15:52:32;;;;;;;6.13;4.43;;;;;;;1.14;69.77;96280.41;2617256;47;20218;-84
2022/12/19 15:55:01;;;;;;;5.00;4.10;;;;;;;1.00;72.05;96265.84;2618125;39;20552;-82
2022/12/19 15:57:34;;;;;;;3.60;2.70;;;;;;;0.41;72.49;96178.72;2617513;47;20674;-83
2022/12/19 16:00:07;;;;;;;5.53;4.63;;;;;;;0.74;73.92;96263.38;2618119;47;20155;-87
2022/12/19 16:02:40;;;;;;;9.83;6.37;;;;;;;0.53;74.30;96246.78;2614705;54;20432;-86
2022/12/19 16:07:36;;;;;;;5.87;3.70;;;;;;;0.62;75.46;96265.78;2624545;54;20116;-84
2022/12/19 16:10:05;;;;;;;3.30;2.93;;;;;;;0.37;75.27;96206.22;2619732;54;20228;-82
2022/12/19 16:12:37;;;;;;;11.53;6.83;;;;;;;0.66;74.98;96268.22;2617949;54;20674;-82
2022/12/19 16:15:08;;;;;;;6.77;3.80;;;;;;;0.65;75.24;96261.88;2616685;47;20153;-79
2022/12/19 16:17:40;;;;;;;6.87;4.50;;;;;;;0.60;74.87;96245.31;2616834;47;20267;-80
2022/12/19 16:20:17;;;;;;;19.53;7.87;;;;;;;0.53;74.50;96246.06;2616746;46;20171;-82
2022/12/19 16:22:46;;;;;;;10.73;6.43;;;;;;;0.78;75.11;96265.81;2616941;47;20203;-80
2022/12/19 16:25:15;;;;;;;9.37;5.70;;;;;;;0.82;75.25;96274.59;2616777;47;20157;-80
2022/12/19 16:27:45;;;;;;;6.30;4.40;;;;;;;0.63;75.50;96275.63;2617239;54;20172;-83
2022/12/19 16:30:22;;;;;;;13.97;7.13;;;;;;;0.53;75.94;96279.50;2617323;47;20168;-82
2022/12/19 16:32:53;;;;;;;5.63;4.43;;;;;;;0.58;76.43;96279.31;2617450;47;20176;-82
2022/12/19 16:35:25;;;;;;;11.40;7.40;;;;;;;0.41;76.44;96281.84;2615731;47;20199;-83
2022/12/19 16:37:53;;;;;;;4.03;3.47;;;;;;;0.33;76.87;96281.84;2616889;54;20171;-82
2022/12/19 16:40:24;;;;;;;3.63;2.53;;;;;;;0.67;75.85;96292.75;2617896;47;20168;-82
2022/12/19 16:43:00;;;;;;;5.03;4.00;;;;;;;0.72;75.06;96285.50;2616888;54;20156;-83
2022/12/19 16:45:28;;;;;;;13.03;4.83;;;;;;;0.59;74.87;96260.56;2616804;47;20167;-82
2022/12/19 16:48:00;;;;;;;3.57;3.27;;;;;;;0.67;75.56;96287.19;2616771;47;20157;-83
2022/12/19 16:50:31;;;;;;;7.83;5.40;;;;;;;0.50;75.59;96264.63;2617491;47;20232;-80
2022/12/19 16:53:00;;;;;;;8.53;5.37;;;;;;;0.62;74.67;96265.78;2617876;47;20157;-82
2022/12/19 16:55:29;;;;;;;1.90;1.90;;;;;;;0.74;75.32;96285.69;2618125;31;20639;-83
2022/12/19 16:57:58;;;;;;;7.93;5.40;;;;;;;1.09;73.59;96283.38;2617598;54;20149;-80
2022/12/19 17:00:27;;;;;;;8.17;6.13;;;;;;;0.50;74.94;96278.56;2617960;54;20160;-83
2022/12/19 17:03:00;;;;;;;10.95;7.22;;;;;;;0.65;75.82;96281.41;2617301;47;20497;-83
2022/12/19 17:05:36;;;;;;;6.60;5.40;;;;;;;0.42;75.48;96272.19;2617940;54;20157;-84
2022/12/19 17:08:11;;;;;;;6.20;5.27;;;;;;;0.28;75.59;96281.97;2618525;39;20690;-84
2022/12/19 17:10:45;;;;;;;10.43;5.73;;;;;;;-0.28;75.77;96233.41;2617727;47;20225;-84
2022/12/19 17:13:16;;;;;;;9.60;5.53;;;;;;;0.07;76.40;96267.41;2617878;54;20444;-85
2022/12/19 17:15:45;;;;;;;7.43;5.50;;;;;;;0.25;75.43;96278.28;2618638;47;20167;-87
2022/12/19 17:18:18;;;;;;;3.70;3.37;;;;;;;-0.11;75.99;96246.88;2617565;47;20236;-84
2022/12/19 17:20:49;;;;;;;8.17;5.07;;;;;;;0.27;75.72;96277.72;2619206;46;20195;-83
2022/12/19 17:23:21;;;;;;;5.13;4.23;;;;;;;-0.01;75.65;96278.50;2617810;46;20160;-81
2022/12/19 17:25:50;;;;;;;8.87;5.23;;;;;;;0.02;75.37;96280.19;2612938;47;20156;-81
2022/12/19 17:28:19;;;;;;;7.10;5.07;;;;;;;-0.06;75.61;96282.94;2613735;47;20279;-84
2022/12/19 17:30:52;;;;;;;4.57;3.73;;;;;;;0.06;75.09;96293.75;2614187;46;20665;-82
2022/12/19 17:33:23;;;;;;;5.63;4.67;;;;;;;0.08;74.75;96285.59;2616181;47;20697;-83
2022/12/19 17:35:54;;;;;;;4.37;3.87;;;;;;;0.05;73.97;96281.88;2616721;39;20580;-85
2022/12/19 17:38:23;;;;;;;6.43;4.90;;;;;;;-0.01;72.88;96287.63;2617938;47;20802;-83
2022/12/19 17:40:51;;;;;;;2.23;1.53;;;;;;;0.68;72.35;96291.44;2618179;54;20168;-84
2022/12/19 17:43:20;;;;;;;4.40;3.97;;;;;;;0.33;70.99;96295.03;2617452;47;20682;-85
2022/12/19 17:45:49;;;;;;;6.20;4.40;;;;;;;-0.09;69.76;96264.53;2616699;47;20188;-83
2022/12/19 17:48:26;;;;;;;6.23;4.17;;;;;;;0.09;70.06;96289.88;2617757;54;20159;-83
2022/12/19 17:50:58;;;;;;;4.37;3.97;;;;;;;0.08;69.35;96282.81;2617752;46;20171;-85
2022/12/19 17:53:27;;;;;;;1.77;1.67;;;;;;;0.33;71.10;96289.44;2617145;46;20219;-84
2022/12/19 17:55:56;;;;;;;3.77;3.27;;;;;;;-0.06;69.90;96265.47;2617143;47;20149;-84
2022/12/19 17:58:25;;;;;;;4.53;4.20;;;;;;;0.05;69.28;96283.91;2618314;46;20217;-86
2022/12/19 18:00:54;;;;;;;3.30;2.73;;;;;;;0.03;69.20;96286.50;2617268;54;20186;-83
2022/12/19 18:03:25;;;;;;;3.57;3.27;;;;;;;-0.01;69.72;96278.50;2617254;54;20162;-83
2022/12/19 18:05:57;;;;;;;1.30;1.30;;;;;;;0.02;70.77;96277.38;2617128;46;20163;-84
2022/12/19 18:08:28;;;;;;;2.70;2.60;;;;;;;-0.29;69.24;96259.03;2617822;47;20168;-84
2022/12/19 18:10:59;;;;;;;2.07;1.97;;;;;;;-0.12;70.02;96276.75;2618461;31;20638;-84
2022/12/19 18:13:29;;;;;;;5.80;3.30;;;;;;;-0.18;69.62;96261.50;2616430;47;20147;-83
2022/12/19 18:16:00;;;;;;;4.10;3.67;;;;;;;-0.09;68.55;96283.28;2624045;47;20129;-81
2022/12/19 18:18:31;;;;;;;0.87;0.87;;;;;;;0.27;70.22;96252.66;2624543;47;20175;-85
2022/12/19 18:21:03;;;;;;;3.57;2.67;;;;;;;-0.27;67.52;96240.44;2617726;47;20174;-85
2022/12/19 18:23:32;;;;;;;2.20;2.10;;;;;;;-0.23;68.62;96243.66;2616492;47;20155;-84
2022/12/19 18:26:01;;;;;;;4.53;2.70;;;;;;;0.09;68.05;96289.88;2617996;54;20163;-83
2022/12/19 18:28:29;;;;;;;3.10;2.90;;;;;;;-0.09;68.01;96289.59;2618276;47;20183;-83
2022/12/19 18:31:01;;;;;;;4.73;3.87;;;;;;;0.10;67.60;96289.34;2617937;54;20151;-84
2022/12/19 18:33:33;;;;;;;5.90;3.73;;;;;;;-0.53;68.89;96260.13;2617884;54;20791;-85
2022/12/19 18:36:05;;;;;;;3.67;3.37;;;;;;;-0.40;68.48;96285.84;2618259;46;20159;-84
2022/12/19 18:38:34;;;;;;;5.37;3.63;;;;;;;-0.45;68.15;96261.69;2620209;46;20163;-84
2022/12/19 18:41:03;;;;;;;5.63;3.70;;;;;;;-0.53;68.37;96271.25;2618447;47;20156;-84
2022/12/19 18:43:32;;;;;;;2.75;2.53;;;;;;;-0.12;69.16;96298.28;2618350;46;20400;-85
2022/12/19 18:46:01;;;;;;;1.93;1.83;;;;;;;-0.41;67.89;96287.13;2618699;47;20250;-85
2022/12/19 18:48:32;;;;;;;3.43;3.00;;;;;;;-0.10;67.68;96290.88;2618837;54;20268;-84
2022/12/19 18:51:05;;;;;;;4.03;3.63;;;;;;;-0.59;67.66;96274.22;2619142;47;20153;-84
2022/12/19 18:53:35;;;;;;;5.55;4.15;;;;;;;-0.42;68.58;96294.03;2619521;47;20400;-83
2022/12/19 18:56:04;;;;;;;3.27;2.97;;;;;;;-0.30;69.28;96277.75;2620087;47;20147;-84
2022/12/19 18:58:34;;;;;;;5.13;4.03;;;;;;;-0.37;68.25;96300.72;2621074;47;20148;-87
2022/12/19 19:01:05;;;;;;;3.40;3.03;;;;;;;-0.36;68.24;96305.75;2619551;47;20696;-86
2022/12/19 19:03:36;;;;;;;5.83;4.33;;;;;;;-0.27;67.58;96304.50;2622905;47;20155;-85
2022/12/19 19:06:13;;;;;;;2.00;1.90;;;;;;;-0.51;69.57;96221.38;2603551;47;20734;-83
2022/12/19 19:08:42;;;;;;;3.47;2.77;;;;;;;-0.25;67.49;96301.91;2618299;54;20663;-82
2022/12/19 19:11:11;;;;;;;5.83;3.00;;;;;;;-0.20;67.78;96306.59;2618453;31;20643;-81
2022/12/19 19:13:39;;;;;;;2.43;2.20;;;;;;;-0.08;67.94;96312.63;2616799;39;20556;-80
2022/12/19 19:16:17;;;;;;;2.70;2.50;;;;;;;-0.20;67.46;96314.22;2615034;47;20690;-82
2022/12/19 19:18:48;;;;;;;7.13;4.57;;;;;;;-0.17;67.53;96322.22;2614659;54;21014;-85
2022/12/19 19:21:20;;;;;;;2.97;2.77;;;;;;;-0.28;67.46;96300.25;2613846;47;20167;-84
2022/12/19 19:23:53;;;;;;;3.47;3.17;;;;;;;-0.25;68.29;96312.31;2614625;54;20167;-84
2022/12/19 19:26:22;;;;;;;2.90;2.70;;;;;;;-0.11;67.80;96317.25;2616361;54;20160;-83
2022/12/19 19:28:51;;;;;;;6.50;3.70;;;;;;;-0.24;68.21;96313.81;2619513;47;20192;-84
2022/12/19 19:31:23;;;;;;;1.63;1.53;;;;;;;-0.29;68.94;96315.47;2620259;47;20168;-83
2022/12/19 19:33:56;;;;;;;3.17;2.97;;;;;;;-0.19;69.40;96312.91;2620467;54;20152;-83
2022/12/19 19:36:31;;;;;;;4.20;3.33;;;;;;;-0.64;68.48;96263.97;2617414;47;20159;-82
2022/12/19 19:39:01;;;;;;;3.73;3.40;;;;;;;-0.53;69.51;96291.50;2616221;54;20193;-84
2022/12/19 19:41:31;;;;;;;3.73;2.67;;;;;;;-0.54;69.36;96300.38;2616842;39;20561;-86
2022/12/19 19:44:03;;;;;;;2.93;2.73;;;;;;;-0.58;69.64;96288.88;2616529;47;20152;-84
2022/12/19 19:46:32;;;;;;;4.27;2.53;;;;;;;-0.07;69.27;96326.00;2616351;54;20155;-87
2022/12/19 19:49:01;;;;;;;2.97;2.67;;;;;;;-0.31;69.25;96322.84;2617111;31;20700;-84
2022/12/19 19:51:32;;;;;;;5.80;4.93;;;;;;;-0.68;69.51;96285.09;2615392;47;20247;-83
2022/12/19 19:54:01;;;;;;;3.17;2.37;;;;;;;-0.34;69.61;96327.47;2616829;47;20173;-84
2022/12/19 19:56:31;;;;;;;1.73;1.60;;;;;;;-0.41;69.43;96301.06;2621997;47;20162;-84
2022/12/19 19:59:00;;;;;;;5.68;4.22;;;;;;;-0.32;69.97;96338.06;2613840;39;20712;-81
2022/12/19 20:01:29;;;;;;;3.47;3.27;;;;;;;-0.33;69.96;96325.44;2615538;54;20701;-81
2022/12/19 20:03:59;;;;;;;3.17;2.97;;;;;;;-0.36;69.75;96336.38;2615265;47;20175;-80
2022/12/19 20:06:28;;;;;;;4.60;2.23;;;;;;;-0.44;70.95;96335.56;2615730;47;20406;-82
2022/12/19 20:08:59;;;;;;;5.35;3.70;;;;;;;-0.61;70.31;96321.31;2615127;54;20450;-81
2022/12/19 20:11:28;;;;;;;3.10;2.90;;;;;;;-0.37;70.62;96332.09;2615749;47;20158;-82
2022/12/19 20:13:57;;;;;;;4.63;4.10;;;;;;;-0.67;70.53;96322.72;2615434;54;20165;-82
2022/12/19 20:16:25;;;;;;;9.00;3.43;;;;;;;-0.72;70.95;96336.25;2615783;47;20328;-83
2022/12/19 20:18:54;;;;;;;6.13;4.97;;;;;;;-0.77;70.88;96320.44;2616366;54;20147;-82
2022/12/19 20:21:23;;;;;;;5.23;4.03;;;;;;;-0.80;70.76;96307.59;2616600;54;20277;-80
2022/12/19 20:23:52;;;;;;;3.50;2.80;;;;;;;-0.68;69.90;96318.47;2616153;54;20154;-81
2022/12/19 20:26:23;;;;;;;6.73;3.77;;;;;;;-0.64;70.88;96313.28;2616439;54;20205;-79
2022/12/19 20:28:53;;;;;;;3.63;3.30;;;;;;;-1.06;70.07;96279.91;2617114;47;20161;-84
2022/12/19 20:31:24;;;;;;;8.57;3.50;;;;;;;-0.62;69.87;96302.38;2617576;54;20161;-81
2022/12/19 20:33:55;;;;;;;4.20;3.67;;;;;;;-0.61;69.17;96296.25;2617854;47;20152;-82
2022/12/19 20:36:24;;;;;;;2.33;2.13;;;;;;;-0.88;69.61;96298.44;2618045;54;20157;-80
2022/12/19 20:38:53;;;;;;;2.27;2.10;;;;;;;-0.75;70.48;96283.72;2618482;47;20193;-80
2022/12/19 20:41:25;;;;;;;2.70;1.87;;;;;;;-1.04;70.22;96305.13;2619361;39;20577;-83
2022/12/19 20:43:54;;;;;;;3.43;3.13;;;;;;;-1.03;70.78;96298.28;2619493;54;20173;-82
2022/12/19 20:46:24;;;;;;;8.63;2.77;;;;;;;-1.24;70.75;96300.31;2625404;54;20164;-81
2022/12/19 20:48:53;;;;;;;3.23;2.93;;;;;;;-1.37;71.38;96286.44;2617795;54;20156;-81
2022/12/19 20:51:25;;;;;;;3.77;3.33;;;;;;;-1.17;71.11;96314.28;2617060;54;20161;-81
2022/12/19 20:53:55;;;;;;;4.33;3.13;;;;;;;-0.84;69.82;96320.38;2617641;47;20703;-79
2022/12/19 20:56:27;;;;;;;2.20;2.00;;;;;;;-1.10;70.38;96308.06;2617912;47;20159;-80
2022/12/19 20:58:56;;;;;;;2.27;2.13;;;;;;;-0.92;70.56;96309.16;2617265;54;20158;-79
2022/12/19 21:01:26;;;;;;;2.87;2.67;;;;;;;-1.15;70.36;96297.06;2617633;47;20154;-80
2022/12/19 21:03:55;;;;;;;1.10;1.00;;;;;;;-0.60;72.93;96305.38;2617995;47;20272;-83
2022/12/19 21:06:25;;;;;;;2.67;2.47;;;;;;;-0.84;69.21;96271.03;2616541;39;20713;-85
2022/12/19 21:08:55;;;;;;;2.53;2.33;;;;;;;-1.16;70.84;96293.53;2617132;39;20651;-83
2022/12/19 21:11:27;;;;;;;2.83;2.63;;;;;;;-1.13;71.23;96286.16;2616329;47;20257;-80
2022/12/19 21:13:56;;;;;;;1.90;1.87;;;;;;;-1.03;71.31;96289.19;2618807;54;20165;-80
2022/12/19 21:16:25;;;;;;;1.30;1.20;;;;;;;-1.01;72.20;96298.50;2620590;39;20598;-80
2022/12/19 21:18:54;;;;;;;3.37;3.07;;;;;;;-1.31;71.41;96301.72;2617149;47;20150;-81
2022/12/19 21:21:29;;;;;;;2.47;2.37;;;;;;;-1.22;72.13;96301.25;2617717;54;20168;-82
2022/12/19 21:23:58;;;;;;;3.27;2.97;;;;;;;-1.42;71.70;96296.41;2617575;54;20164;-81
2022/12/19 21:26:29;;;;;;;1.50;1.40;;;;;;;-1.08;73.74;96288.78;2617667;54;20163;-85
2022/12/19 21:28:59;;;;;;;2.87;2.67;;;;;;;-1.19;71.36;96282.75;2618380;47;20154;-80
2022/12/19 21:31:30;;;;;;;3.07;2.67;;;;;;;-1.27;71.33;96293.03;2617023;47;20155;-80
2022/12/19 21:34:01;;;;;;;7.30;2.07;;;;;;;-1.17;71.68;96303.16;2619587;54;20145;-81
2022/12/19 21:36:31;;;;;;;2.77;2.17;;;;;;;-1.53;72.44;96283.50;2618996;46;20209;-82
2022/12/19 21:39:01;;;;;;;4.30;2.37;;;;;;;-1.07;71.45;96300.66;2619252;39;20301;-81
2022/12/19 21:41:33;;;;;;;2.83;2.37;;;;;;;-1.20;72.04;96315.34;2618771;47;20150;-79
2022/12/19 21:44:02;;;;;;;7.53;2.60;;;;;;;-1.53;72.54;96294.63;2619082;47;20232;-83
2022/12/19 21:46:33;;;;;;;3.53;2.50;;;;;;;-1.47;72.66;96313.94;2619193;54;20192;-81
2022/12/19 21:49:02;;;;;;;5.40;3.03;;;;;;;-1.53;73.25;96314.06;2619441;54;20172;-82
2022/12/19 21:51:33;;;;;;;4.37;3.20;;;;;;;-1.53;73.65;96293.88;2618751;47;20145;-82
2022/12/19 21:54:04;;;;;;;2.43;2.33;;;;;;;-1.57;73.78;96294.19;2619502;54;20176;-83
2022/12/19 21:56:37;;;;;;;2.23;2.13;;;;;;;-1.41;73.77;96297.88;2618952;47;20660;-82
2022/12/19 21:59:08;;;;;;;2.57;2.47;;;;;;;-1.27;73.20;96301.38;2619140;47;20188;-84
2022/12/19 22:01:37;;;;;;;1.77;1.10;;;;;;;-0.87;76.92;96288.81;2620205;54;20322;-81
2022/12/19 22:04:08;;;;;;;1.73;1.67;;;;;;;-1.21;73.56;96291.63;2618990;54;20244;-82
2022/12/19 22:06:39;;;;;;;2.93;2.70;;;;;;;-1.29;74.83;96276.91;2618895;54;20194;-84
2022/12/19 22:09:10;;;;;;;5.83;4.10;;;;;;;-1.40;74.77;96277.16;2618892;47;20665;-81
2022/12/19 22:11:41;;;;;;;2.60;2.10;;;;;;;-1.49;75.64;96272.78;2618929;54;20239;-82
2022/12/19 22:14:12;;;;;;;6.87;3.13;;;;;;;-1.41;75.94;96266.56;2618661;46;20274;-82
2022/12/19 22:16:41;;;;;;;1.60;1.50;;;;;;;-1.37;76.72;96269.78;2618885;47;20256;-81
2022/12/19 22:19:11;;;;;;;4.53;3.10;;;;;;;-1.54;76.34;96270.13;2619065;47;20154;-83
2022/12/19 22:21:40;;;;;;;5.33;4.17;;;;;;;-1.48;76.26;96268.72;2619361;47;20151;-82
2022/12/19 22:24:11;;;;;;;3.63;2.60;;;;;;;-1.35;76.87;96267.94;2619077;54;20145;-81
2022/12/19 22:26:43;;;;;;;3.93;3.47;;;;;;;-1.54;76.32;96261.81;2619205;54;20150;-81
2022/12/19 22:29:15;;;;;;;2.50;2.40;;;;;;;-1.41;77.06;96272.88;2619460;39;20232;-82
2022/12/19 22:31:44;;;;;;;3.03;2.80;;;;;;;-1.56;76.69;96269.94;2618857;47;20156;-81
2022/12/19 22:34:15;;;;;;;2.63;2.47;;;;;;;-1.07;77.51;96272.84;2620268;47;20153;-82
2022/12/19 22:36:45;;;;;;;4.40;4.00;;;;;;;-1.33;75.45;96272.94;2618647;54;20820;-83
2022/12/19 22:39:17;;;;;;;4.30;3.33;;;;;;;-1.35;75.21;96276.25;2618680;46;20147;-80
2022/12/19 22:41:48;;;;;;;2.57;2.37;;;;;;;-1.23;75.43;96271.94;2618091;54;20191;-81
2022/12/19 22:44:18;;;;;;;2.53;2.43;;;;;;;-1.41;74.40;96256.22;2617885;47;20145;-80
2022/12/19 22:46:48;;;;;;;2.87;2.57;;;;;;;-1.44;74.29;96265.63;2616290;47;20225;-81
2022/12/19 22:49:16;;;;;;;5.50;3.73;;;;;;;-1.33;73.81;96268.13;2618048;46;20172;-81
2022/12/19 22:51:45;;;;;;;3.43;3.13;;;;;;;-1.40;74.80;96268.06;2617650;54;20157;-81
2022/12/19 22:54:15;;;;;;;2.97;2.77;;;;;;;-1.31;75.56;96273.91;2617977;47;20150;-81
2022/12/19 22:56:44;;;;;;;4.93;3.50;;;;;;;-1.61;75.64;96237.44;2617886;47;20165;-82
2022/12/19 22:59:16;;;;;;;2.53;2.37;;;;;;;-1.35;74.48;96231.03;2620114;54;20164;-81
2022/12/19 23:01:45;;;;;;;5.07;4.57;;;;;;;-1.30;74.54;96261.50;2620159;47;20157;-82
2022/12/19 23:04:16;;;;;;;6.07;3.13;;;;;;;-0.80;75.82;96259.56;2618258;47;20662;-81
2022/12/19 23:06:45;;;;;;;2.23;2.07;;;;;;;-1.10;74.19;96257.25;2618519;47;20185;-82
2022/12/19 23:09:17;;;;;;;4.63;4.22;;;;;;;-1.26;73.62;96252.84;2617773;46;20384;-80
2022/12/19 23:11:50;;;;;;;1.83;1.73;;;;;;;-1.29;74.39;96218.53;2618911;39;20574;-81
2022/12/19 23:14:22;;;;;;;8.03;3.57;;;;;;;-1.12;73.39;96249.47;2620393;54;20158;-82
2022/12/19 23:16:51;;;;;;;3.43;3.17;;;;;;;-1.30;73.90;96235.75;2624750;54;20209;-81
2022/12/19 23:19:20;;;;;;;3.40;3.13;;;;;;;-1.37;73.85;96248.28;2617570;47;20164;-81
2022/12/19 23:21:49;;;;;;;2.80;2.23;;;;;;;-1.46;74.30;96255.03;2617942;54;20708;-81
2022/12/19 23:24:17;;;;;;;4.87;4.47;;;;;;;-1.65;74.44;96231.50;2618079;47;20161;-82
2022/12/19 23:26:46;;;;;;;2.27;2.27;;;;;;;-1.34;74.81;96249.97;2617834;47;20242;-82
2022/12/19 23:29:17;;;;;;;1.70;1.70;;;;;;;-0.77;73.33;96259.22;2618572;39;20586;-81
2022/12/19 23:31:49;;;;;;;4.83;3.23;;;;;;;0.26;69.64;96246.31;2617944;54;20156;-81
2022/12/19 23:34:18;;;;;;;2.07;2.07;;;;;;;0.59;67.63;96257.75;2618766;39;20572;-81
2022/12/19 23:36:47;;;;;;;2.90;2.80;;;;;;;1.09;66.37;96255.47;2618256;54;20180;-81
2022/12/19 23:39:16;;;;;;;2.67;2.07;;;;;;;2.07;63.22;96260.97;2618167;54;20149;-81
2022/12/19 23:41:45;;;;;;;2.33;2.23;;;;;;;2.49;60.65;96263.28;2617980;54;20152;-80
2022/12/19 23:44:14;;;;;;;2.90;2.73;;;;;;;1.15;64.39;96265.13;2618398;54;20164;-82
2022/12/19 23:46:42;;;;;;;4.20;3.80;;;;;;;0.95;64.11;96269.59;2618185;54;20203;-81
2022/12/19 23:49:14;;;;;;;4.50;3.40;;;;;;;0.55;66.39;96263.69;2618054;47;20172;-82
2022/12/19 23:51:43;;;;;;;2.37;2.20;;;;;;;1.73;64.83;96255.09;2621500;47;20133;-81
2022/12/19 23:54:12;;;;;;;2.57;2.47;;;;;;;2.06;61.35;96242.72;2617792;54;20243;-81
2022/12/19 23:56:41;;;;;;;2.60;2.47;;;;;;;1.59;62.11;96243.38;2617987;54;20157;-82
2022/12/19 23:59:10;;;;;;;3.80;2.80;;;;;;;1.24;62.65;96235.94;2618208;39;20555;-81
